createdAt,value
2022-08-02T00:02:36.180Z,2.03
2022-08-02T00:06:38.806Z,1.70
2022-08-02T00:10:40.708Z,1.75
2022-08-02T00:14:42.693Z,1.67
2022-08-02T00:18:45.068Z,1.83
2022-08-02T00:22:46.992Z,1.52
2022-08-02T00:26:48.933Z,1.63
2022-08-02T00:30:50.869Z,1.80
2022-08-02T00:34:52.891Z,1.60
2022-08-02T00:38:54.961Z,1.77
2022-08-02T00:43:05.222Z,1.80
2022-08-02T00:47:07.207Z,1.50
2022-08-02T00:51:09.130Z,1.73
2022-08-02T00:55:11.038Z,2.03
2022-08-02T00:59:13.713Z,2.15
2022-08-02T01:03:17.217Z,2.05
2022-08-02T01:07:19.123Z,2.03
2022-08-02T01:11:21.060Z,2.10
2022-08-02T01:15:23.401Z,1.90
2022-08-02T01:20:09.591Z,2.08
2022-08-02T01:24:21.347Z,1.83
2022-08-02T01:28:38.066Z,2.17
2022-08-02T01:32:46.470Z,1.83
2022-08-02T01:37:26.251Z,1.60
2022-08-02T01:41:29.713Z,1.90
2022-08-02T01:45:35.487Z,1.63
2022-08-02T01:49:39.997Z,2.20
2022-08-02T01:53:45.364Z,1.65
2022-08-02T01:57:50.619Z,1.60
2022-08-02T02:01:56.058Z,1.90
2022-08-02T02:05:59.936Z,1.80
2022-08-02T02:10:03.637Z,1.98
2022-08-02T02:14:07.874Z,1.90
2022-08-02T02:18:13.879Z,1.90
2022-08-02T02:22:15.948Z,1.88
2022-08-02T02:26:29.715Z,1.80
2022-08-02T02:30:35.721Z,1.83
2022-08-02T02:34:44.834Z,1.95
2022-08-02T02:38:48.528Z,1.85
2022-08-02T02:42:52.064Z,1.75
2022-08-02T02:46:55.376Z,2.15
2022-08-02T02:50:58.357Z,1.80
2022-08-02T02:55:01.002Z,2.10
2022-08-02T02:59:03.525Z,1.88
2022-08-02T03:03:06.435Z,2.10
2022-08-02T03:07:09.901Z,2.10
2022-08-02T03:11:13.203Z,2.20
2022-08-02T03:15:17.759Z,1.90
2022-08-02T03:19:21.829Z,2.00
2022-08-02T03:23:23.745Z,2.17
2022-08-02T03:27:25.627Z,2.40
2022-08-02T03:31:27.622Z,2.30
2022-08-02T03:35:35.501Z,2.13
2022-08-02T03:39:38.279Z,2.00
2022-08-02T03:43:54.620Z,2.20
2022-08-02T03:47:58.962Z,1.90
2022-08-02T03:52:02.186Z,2.53
2022-08-02T03:56:06.309Z,1.90
2022-08-02T04:00:10.440Z,2.10
2022-08-02T04:04:12.398Z,2.05
2022-08-02T04:08:36.872Z,2.40
2022-08-02T04:12:36.369Z,2.10
2022-08-02T04:16:46.517Z,2.13
2022-08-02T04:20:50.023Z,2.60
2022-08-02T04:24:57.376Z,2.35
2022-08-02T04:29:00.541Z,2.30
2022-08-02T04:33:02.779Z,2.45
2022-08-02T04:37:05.672Z,2.03
2022-08-02T04:41:08.047Z,2.00
2022-08-02T04:45:11.765Z,3.10
2022-08-02T04:49:18.820Z,5.20
2022-08-02T04:53:20.930Z,7.07
2022-08-02T04:57:50.700Z,4.78
2022-08-02T05:01:55.014Z,5.40
2022-08-02T05:05:57.019Z,5.38
2022-08-02T05:09:58.979Z,6.45
2022-08-02T05:14:00.917Z,5.90
2022-08-02T05:18:03.351Z,6.35
2022-08-02T05:22:05.513Z,5.90
2022-08-02T05:26:07.434Z,5.68
2022-08-02T05:30:10.077Z,4.47
2022-08-02T05:34:12.313Z,3.95
2022-08-02T05:38:14.411Z,3.75
2022-08-02T05:42:16.846Z,3.85
2022-08-02T05:46:18.770Z,3.75
2022-08-02T05:50:20.940Z,3.88
2022-08-02T05:54:45.754Z,3.10
2022-08-02T05:58:56.444Z,3.42
2022-08-02T06:03:01.431Z,4.00
2022-08-02T06:07:06.647Z,4.40
2022-08-02T06:11:14.358Z,3.90
2022-08-02T06:15:18.456Z,3.67
2022-08-02T06:19:20.886Z,4.07
2022-08-02T06:23:23.872Z,4.75
2022-08-02T06:27:30.382Z,4.30
2022-08-02T06:31:32.405Z,4.40
2022-08-02T06:36:08.081Z,4.38
2022-08-02T06:40:22.263Z,4.15
2022-08-02T06:44:47.962Z,3.50
2022-08-02T06:48:46.985Z,3.70
2022-08-02T06:52:48.898Z,3.42
2022-08-02T06:56:50.783Z,3.60
2022-08-02T07:00:53.223Z,3.47
2022-08-02T07:04:55.145Z,2.83
2022-08-02T07:09:19.432Z,2.65
2022-08-02T07:13:19.027Z,3.25
2022-08-02T07:17:21.806Z,2.97
2022-08-02T07:21:56.053Z,3.22
2022-08-02T07:26:01.957Z,3.40
2022-08-02T07:30:06.351Z,4.35
2022-08-02T07:34:08.296Z,4.03
2022-08-02T07:38:10.218Z,3.40
2022-08-02T07:42:12.416Z,3.47
2022-08-02T07:46:14.731Z,3.83
2022-08-02T07:50:18.605Z,3.47
2022-08-02T07:54:20.633Z,3.20
2022-08-02T07:58:22.536Z,2.67
2022-08-02T08:02:27.650Z,2.75
2022-08-02T08:06:29.587Z,2.80
2022-08-02T08:10:32.369Z,2.60
2022-08-02T08:14:34.461Z,2.20
2022-08-02T08:18:36.373Z,2.25
2022-08-02T08:22:38.310Z,2.10
2022-08-02T08:26:40.499Z,2.20
2022-08-02T08:30:42.833Z,2.00
2022-08-02T08:34:45.291Z,1.80
2022-08-02T08:38:47.219Z,2.20
2022-08-02T08:42:49.152Z,1.98
2022-08-02T08:46:52.111Z,1.55
2022-08-02T08:51:00.893Z,2.50
2022-08-02T08:55:05.791Z,1.95
2022-08-02T08:59:07.816Z,1.90
2022-08-02T09:03:10.719Z,2.05
2022-08-02T09:07:13.081Z,1.70
2022-08-02T09:11:19.790Z,1.95
2022-08-02T09:15:25.574Z,1.75
2022-08-02T09:19:27.439Z,1.85
2022-08-02T09:23:38.070Z,2.35
2022-08-02T09:27:40.093Z,1.90
2022-08-02T09:31:49.546Z,1.60
2022-08-02T09:36:05.999Z,1.67
2022-08-02T09:40:12.134Z,2.00
2022-08-02T09:44:16.620Z,0.90
2022-08-02T09:48:18.530Z,1.40
2022-08-02T09:52:37.085Z,0.93
2022-08-02T09:56:54.407Z,0.90
2022-08-02T10:01:01.222Z,0.85
2022-08-02T10:05:03.897Z,0.70
2022-08-02T10:09:07.903Z,0.60
2022-08-02T10:13:10.694Z,0.95
2022-08-02T10:17:12.805Z,0.80
2022-08-02T10:21:29.627Z,0.93
2022-08-02T10:25:32.499Z,0.80
2022-08-02T10:29:53.500Z,0.80
2022-08-02T10:34:00.172Z,0.90
2022-08-02T10:38:08.046Z,0.90
2022-08-02T10:42:10.743Z,0.80
2022-08-02T10:46:34.271Z,1.43
2022-08-02T10:50:48.317Z,0.60
2022-08-02T10:55:01.973Z,0.75
2022-08-02T10:59:42.993Z,0.50
2022-08-02T11:03:45.435Z,0.55
2022-08-02T11:07:49.761Z,0.40
2022-08-02T11:12:05.355Z,0.40
2022-08-02T11:16:11.524Z,0.40
2022-08-02T11:20:15.809Z,0.47
2022-08-02T11:24:29.479Z,0.30
2022-08-02T11:28:32.723Z,0.30
2022-08-02T11:32:36.204Z,0.50
2022-08-02T11:37:04.250Z,0.50
2022-08-02T11:41:09.918Z,0.43
2022-08-02T11:45:21.496Z,0.50
2022-08-02T11:49:23.947Z,0.50
2022-08-02T11:53:25.847Z,0.50
2022-08-02T11:57:27.840Z,0.60
2022-08-02T12:01:32.309Z,0.40
2022-08-02T12:06:04.824Z,0.40
2022-08-02T12:10:02.529Z,0.40
2022-08-02T12:14:05.686Z,0.45
2022-08-02T12:18:30.354Z,0.40
2022-08-02T12:22:41.484Z,0.50
2022-08-02T12:26:48.478Z,0.50
2022-08-02T12:30:52.874Z,0.40
2022-08-02T12:35:26.097Z,0.32
2022-08-02T12:39:44.030Z,0.40
2022-08-02T12:43:46.075Z,0.50
2022-08-02T12:47:50.161Z,0.30
2022-08-02T12:51:59.952Z,0.30
2022-08-02T12:56:03.858Z,0.40
2022-08-02T13:00:06.595Z,0.30
2022-08-02T13:04:13.532Z,0.20
2022-08-02T13:08:16.703Z,0.30
2022-08-02T13:12:18.649Z,0.32
2022-08-02T13:16:30.747Z,0.32
2022-08-02T13:20:33.534Z,0.30
2022-08-02T13:24:41.185Z,0.30
2022-08-02T13:28:58.368Z,0.40
2022-08-02T13:33:01.262Z,0.20
2022-08-02T13:37:04.116Z,0.40
2022-08-02T13:41:08.731Z,0.90
2022-08-02T13:45:12.609Z,0.40
2022-08-02T13:49:19.732Z,0.35
2022-08-02T13:53:22.134Z,0.40
2022-08-02T13:57:24.094Z,0.50
2022-08-02T14:01:26.876Z,0.50
2022-08-02T14:05:39.305Z,0.70
2022-08-02T14:09:49.858Z,0.50
2022-08-02T14:13:51.761Z,0.60
2022-08-02T14:17:53.687Z,0.70
2022-08-02T14:22:11.314Z,0.70
2022-08-02T14:26:26.775Z,0.60
2022-08-02T14:30:29.898Z,0.55
2022-08-02T14:34:31.870Z,0.55
2022-08-02T14:38:35.257Z,0.70
2022-08-02T14:42:37.223Z,0.50
2022-08-02T14:46:42.991Z,0.55
2022-08-02T14:50:44.882Z,0.50
2022-08-02T14:54:47.021Z,0.57
2022-08-02T14:58:49.077Z,0.55
2022-08-02T15:02:50.987Z,0.60
2022-08-02T15:06:53.482Z,0.60
2022-08-02T15:10:55.437Z,0.57
2022-08-02T15:14:57.936Z,0.45
2022-08-02T15:18:59.839Z,0.60
2022-08-02T15:23:03.502Z,0.40
2022-08-02T15:27:10.350Z,0.50
2022-08-02T15:35:35.038Z,0.43
2022-08-02T15:39:37.157Z,0.50
2022-08-02T15:44:00.199Z,0.32
2022-08-02T15:48:01.159Z,0.43
2022-08-02T15:52:05.638Z,0.57
2022-08-02T15:56:12.803Z,0.70
2022-08-02T16:00:18.260Z,0.80
2022-08-02T16:04:20.932Z,0.70
2022-08-02T16:08:22.837Z,0.60
2022-08-02T16:12:32.321Z,0.50
2022-08-02T16:16:36.576Z,0.57
2022-08-02T16:20:38.558Z,0.52
2022-08-02T16:24:41.115Z,0.63
2022-08-02T16:28:43.053Z,0.57
2022-08-02T16:32:45.023Z,0.52
2022-08-02T16:36:47.061Z,0.50
2022-08-02T16:40:48.952Z,0.55
2022-08-02T16:44:53.241Z,0.70
2022-08-02T16:48:55.697Z,0.50
2022-08-02T16:52:58.169Z,0.60
2022-08-02T16:57:00.551Z,0.50
2022-08-02T17:01:02.889Z,0.60
2022-08-02T17:05:13.890Z,0.50
2022-08-02T17:10:03.301Z,0.55
2022-08-02T17:13:38.183Z,0.68
2022-08-02T17:17:43.237Z,0.50
2022-08-02T17:21:45.576Z,0.50
2022-08-02T17:25:52.309Z,0.63
2022-08-02T17:29:55.441Z,0.50
2022-08-02T17:33:58.422Z,0.68
2022-08-02T17:38:00.520Z,0.60
2022-08-02T17:42:02.906Z,0.80
2022-08-02T17:46:06.791Z,0.60
2022-08-02T17:50:10.160Z,0.60
2022-08-02T17:54:18.666Z,0.70
2022-08-02T17:58:20.801Z,0.80
2022-08-02T18:02:22.821Z,0.75
2022-08-02T18:06:26.204Z,0.90
2022-08-02T18:10:28.780Z,0.60
2022-08-02T18:14:30.769Z,0.70
2022-08-02T18:18:32.807Z,0.95
2022-08-02T18:22:34.737Z,0.70
2022-08-02T18:26:38.097Z,0.80
2022-08-02T18:30:40.893Z,0.60
2022-08-02T18:34:44.399Z,0.90
2022-08-02T18:38:49.767Z,0.70
2022-08-02T18:42:51.657Z,0.70
2022-08-02T18:46:54.242Z,0.90
2022-08-02T18:50:56.388Z,0.90
2022-08-02T18:54:58.409Z,0.88
2022-08-02T18:59:02.943Z,0.90
2022-08-02T19:03:05.192Z,0.82
2022-08-02T19:07:10.335Z,1.08
2022-08-02T19:11:13.726Z,0.80
2022-08-02T19:15:17.182Z,0.88
2022-08-02T19:19:20.501Z,0.68
2022-08-02T19:23:22.403Z,0.60
2022-08-02T19:27:25.661Z,1.02
2022-08-02T19:31:28.309Z,1.00
2022-08-02T19:35:36.753Z,0.90
2022-08-02T19:39:58.669Z,0.70
2022-08-02T19:44:26.682Z,0.85
2022-08-02T19:48:24.002Z,0.90
2022-08-02T19:52:27.640Z,0.85
2022-08-02T19:56:29.736Z,0.80
2022-08-02T20:00:33.054Z,1.08
2022-08-02T20:04:34.985Z,0.90
2022-08-02T20:08:37.707Z,1.02
2022-08-02T20:12:40.415Z,1.00
2022-08-02T20:16:42.878Z,0.80
2022-08-02T20:20:47.931Z,0.80
2022-08-02T20:24:49.922Z,0.90
2022-08-02T20:28:52.312Z,0.85
2022-08-02T20:33:21.090Z,0.88
2022-08-02T20:37:55.971Z,0.73
2022-08-02T20:41:46.335Z,0.70
2022-08-02T20:45:52.644Z,1.00
2022-08-02T20:50:14.215Z,0.80
2022-08-02T20:54:20.798Z,0.90
2022-08-02T20:58:26.545Z,0.80
2022-08-02T21:02:28.716Z,1.08
2022-08-02T21:06:30.697Z,0.90
2022-08-02T21:10:36.635Z,0.90
2022-08-02T21:14:38.756Z,0.85
2022-08-02T21:18:41.303Z,0.90
2022-08-02T21:22:43.540Z,0.80
2022-08-02T21:26:48.646Z,1.10
2022-08-02T21:30:50.740Z,0.75
2022-08-02T21:34:52.700Z,0.88
2022-08-02T21:38:57.472Z,0.90
2022-08-02T21:42:59.362Z,0.90
2022-08-02T21:47:02.159Z,0.90
2022-08-02T21:51:04.110Z,0.93
2022-08-02T21:55:06.696Z,1.10
2022-08-02T21:59:26.319Z,1.08
2022-08-02T22:03:29.633Z,0.73
2022-08-02T22:07:38.285Z,1.00
2022-08-02T22:11:40.520Z,0.77
2022-08-02T22:15:42.506Z,0.80
2022-08-02T22:19:52.582Z,0.70
2022-08-02T22:28:35.101Z,0.93
2022-08-02T22:32:40.434Z,0.90
2022-08-02T22:36:44.385Z,1.05
2022-08-02T22:40:47.803Z,1.08
2022-08-02T22:44:49.710Z,0.85
2022-08-02T22:48:51.772Z,1.20
2022-08-02T22:52:53.739Z,0.82
2022-08-02T22:56:56.348Z,0.80
2022-08-02T23:00:58.637Z,0.90
2022-08-02T23:05:00.755Z,1.20
2022-08-02T23:09:02.768Z,1.00
2022-08-02T23:13:04.661Z,1.10
2022-08-02T23:17:24.997Z,1.52
2022-08-02T23:22:01.967Z,0.98
2022-08-02T23:25:54.330Z,1.20
2022-08-02T23:29:56.642Z,1.00
2022-08-02T23:34:04.083Z,0.90
2022-08-02T23:38:06.508Z,1.10
2022-08-02T23:42:08.482Z,0.80
2022-08-02T23:46:10.369Z,0.98
2022-08-02T23:50:12.276Z,1.00
2022-08-02T23:54:14.236Z,1.00
2022-08-02T23:58:16.169Z,0.80
